Bastille Street — A8YZ6 — position and weather

sailwx.info

Track history (hours):
 
Tides and Currents Weather Stations Pressure Air Temp Water Temp Dewpoint Dewpoint Depression Visibility Wind Speed Wind Dir Waves Ship Positions

Bastille Street

Last reported at 2015-Nov-23 16:33 UTC. Time now 2016-Feb-07 10:38 UTC.
Position N 37°26' E 025°53'.
Warning: this ship's position is months out of date.

Length 180 m; draft 10.7 m.

MMSI: 636015161.

Date/timePositionNaut miles runAvg speedWind from/ knotsBaromVisibWave heightAir tempDewpointWater temp
2015-Nov-23 16:33N 37°26' E 025°53'1111.3
2015-Nov-23 15:33N 37°37' E 025°49'14511.1
2015-Nov-23 02:29N 40°02' E 026°07'  
2015-Nov-19 11:07N 40°45' E 029°38'0 0.0
2015-Nov-19 03:25N 40°45' E 029°38'5 0.1
2015-Nov-17 18:22N 40°45' E 029°32'8 9.5
2015-Nov-17 17:33N 40°43' E 029°23'9 9.1
2015-Nov-17 16:33N 40°43' E 029°11'1211.5
2015-Nov-17 15:33N 40°44' E 028°55'149 8.7
2015-Nov-16 22:32N 39°50' E 025°54'0 0.0
2015-Nov-16 21:32N 39°50' E 025°54'0 0.0
2015-Nov-16 20:32N 39°50' E 025°54'3 3.1
2015-Nov-16 19:28N 39°47' E 025°53'1211.3
2015-Nov-16 18:26N 39°36' E 025°47'12112.2
2015-Nov-16 08:31N 37°35' E 025°50'1111.8
2015-Nov-16 07:33N 37°24' E 025°54'1212.2
2015-Nov-16 06:32N 37°13' E 026°01'1411.8
2015-Nov-16 05:21N 37°01' E 026°09'1211.9
2015-Nov-16 04:23N 36°52' E 026°18'33412.4
2015-Nov-15 01:30N 32°43' E 030°50'1212.5
2015-Nov-15 00:33N 32°34' E 030°59'1212.5
2015-Nov-14 23:33N 32°25' E 031°09'2412.0
2015-Nov-14 21:33N 32°07' E 031°28'6112.2
2015-Nov-14 16:30N 31°27' E 032°23'1311.6
2015-Nov-14 15:23N 31°14' E 032°21'6 7.7
2015-Nov-14 14:33N 31°08' E 032°19'9 8.6
2015-Nov-14 13:33N 30°59' E 032°19'  
Track history (hours):
 
Tides and Currents Weather Stations Pressure Air Temp Water Temp Dewpoint Dewpoint Depression Visibility Wind Speed Wind Dir Waves Ship Positions

Bastille Street

Last reported at 2015-Nov-23 16:33 UTC. Time now 2016-Feb-07 10:38 UTC.
Position N 37°26' E 025°53'.
Warning: this ship's position is months out of date.

Length 180 m; draft 10.7 m.

MMSI: 636015161.

Date/timePositionNaut miles runAvg speedWind from/ knotsBaromVisibWave heightAir tempDewpointWater temp
2015-Nov-23 16:33N 37°26' E 025°53'1111.3
2015-Nov-23 15:33N 37°37' E 025°49'14511.1
2015-Nov-23 02:29N 40°02' E 026°07'  
2015-Nov-19 11:07N 40°45' E 029°38'0 0.0
2015-Nov-19 03:25N 40°45' E 029°38'5 0.1
2015-Nov-17 18:22N 40°45' E 029°32'8 9.5
2015-Nov-17 17:33N 40°43' E 029°23'9 9.1
2015-Nov-17 16:33N 40°43' E 029°11'1211.5
2015-Nov-17 15:33N 40°44' E 028°55'149 8.7
2015-Nov-16 22:32N 39°50' E 025°54'0 0.0
2015-Nov-16 21:32N 39°50' E 025°54'0 0.0
2015-Nov-16 20:32N 39°50' E 025°54'3 3.1
2015-Nov-16 19:28N 39°47' E 025°53'1211.3
2015-Nov-16 18:26N 39°36' E 025°47'12112.2
2015-Nov-16 08:31N 37°35' E 025°50'1111.8
2015-Nov-16 07:33N 37°24' E 025°54'1212.2
2015-Nov-16 06:32N 37°13' E 026°01'1411.8
2015-Nov-16 05:21N 37°01' E 026°09'1211.9
2015-Nov-16 04:23N 36°52' E 026°18'33412.4
2015-Nov-15 01:30N 32°43' E 030°50'1212.5
2015-Nov-15 00:33N 32°34' E 030°59'1212.5
2015-Nov-14 23:33N 32°25' E 031°09'2412.0
2015-Nov-14 21:33N 32°07' E 031°28'6112.2
2015-Nov-14 16:30N 31°27' E 032°23'1311.6
2015-Nov-14 15:23N 31°14' E 032°21'6 7.7
2015-Nov-14 14:33N 31°08' E 032°19'9 8.6
2015-Nov-14 13:33N 30°59' E 032°19'  

Dump ship's entire track history